createdAt,value
2023-03-06T00:00:35.211Z,99322.13
2023-03-06T00:03:03.452Z,99312.72
2023-03-06T00:05:31.844Z,99313.72
2023-03-06T00:08:01.742Z,99311.06
2023-03-06T00:10:32.515Z,99313.09
2023-03-06T00:13:04.244Z,99308.91
2023-03-06T00:15:33.050Z,99312.66
2023-03-06T00:18:03.655Z,99289.25
2023-03-06T00:20:32.074Z,99295.97
2023-03-06T00:23:01.823Z,99284.78
2023-03-06T00:25:30.031Z,99290.56
2023-03-06T00:27:58.559Z,99287.81
2023-03-06T00:30:27.199Z,99290.59
2023-03-06T00:32:56.064Z,99284.31
2023-03-06T00:35:25.253Z,99284.56
2023-03-06T00:37:53.562Z,99278.19
2023-03-06T00:40:23.473Z,99276.03
2023-03-06T00:42:51.744Z,99268.09
2023-03-06T00:45:21.234Z,99271.13
2023-03-06T00:47:49.593Z,99268.41
2023-03-06T00:50:17.962Z,99261.72
2023-03-06T00:52:46.706Z,99265.00
2023-03-06T00:55:14.956Z,99253.88
2023-03-06T00:57:44.528Z,99247.72
2023-03-06T01:00:14.594Z,99246.69
2023-03-06T01:02:43.084Z,99246.56
2023-03-06T01:05:13.905Z,99243.41
2023-03-06T01:07:42.271Z,99241.41
2023-03-06T01:10:13.886Z,99238.94
2023-03-06T01:12:43.715Z,99240.28
2023-03-06T01:15:14.698Z,99233.94
2023-03-06T01:17:42.891Z,99227.84
2023-03-06T01:20:14.970Z,99225.00
2023-03-06T01:22:43.513Z,99228.25
2023-03-06T01:25:13.246Z,99222.91
2023-03-06T01:27:41.403Z,99219.63
2023-03-06T01:30:14.767Z,99223.72
2023-03-06T01:32:43.076Z,99216.59
2023-03-06T01:35:12.548Z,99212.56
2023-03-06T01:37:41.966Z,99209.44
2023-03-06T01:40:13.208Z,99213.16
2023-03-06T01:42:42.943Z,99212.72
2023-03-06T01:46:03.568Z,99206.81
2023-03-06T01:48:33.236Z,99197.16
2023-03-06T01:51:01.435Z,99202.50
2023-03-06T01:53:30.009Z,99195.94
2023-03-06T01:55:58.180Z,99189.16
2023-03-06T01:58:26.442Z,99189.16
2023-03-06T02:00:54.810Z,99183.81
2023-03-06T02:03:28.045Z,99185.53
2023-03-06T02:05:59.711Z,99179.28
2023-03-06T02:08:29.225Z,99176.88
2023-03-06T02:11:11.923Z,99177.72
2023-03-06T02:13:41.467Z,99176.13
2023-03-06T02:16:11.837Z,99173.53
2023-03-06T02:18:41.781Z,99173.09
2023-03-06T02:21:20.111Z,99169.97
2023-03-06T02:24:00.855Z,99166.94
2023-03-06T02:26:32.665Z,99158.50
2023-03-06T02:29:01.160Z,99158.00
2023-03-06T02:31:32.064Z,99156.88
2023-03-06T02:34:08.675Z,99155.97
2023-03-06T02:36:42.766Z,99157.31
2023-03-06T02:39:11.442Z,99158.16
2023-03-06T02:41:41.185Z,99156.16
2023-03-06T02:44:10.016Z,99152.41
2023-03-06T02:46:38.423Z,99154.13
2023-03-06T02:49:06.564Z,99155.34
2023-03-06T02:51:36.878Z,99158.00
2023-03-06T02:54:05.318Z,99154.16
2023-03-06T02:56:33.510Z,99152.03
2023-03-06T02:59:03.077Z,99142.47
2023-03-06T03:01:31.810Z,99147.72
2023-03-06T03:04:00.116Z,99143.50
2023-03-06T03:06:29.361Z,99145.03
2023-03-06T03:08:57.566Z,99146.66
2023-03-06T03:11:26.467Z,99143.38
2023-03-06T03:13:54.792Z,99130.94
2023-03-06T03:16:27.077Z,99143.50
2023-03-06T03:18:59.170Z,99132.78
2023-03-06T03:21:28.629Z,99135.06
2023-03-06T03:23:57.303Z,99142.94
2023-03-06T03:26:28.879Z,99140.44
2023-03-06T03:29:17.362Z,99138.44
2023-03-06T03:31:47.057Z,99134.66
2023-03-06T03:34:15.545Z,99129.16
2023-03-06T03:36:44.446Z,99134.44
2023-03-06T03:39:14.056Z,99130.13
2023-03-06T03:41:43.349Z,99133.38
2023-03-06T03:44:12.409Z,99119.69
2023-03-06T03:46:41.114Z,99122.38
2023-03-06T03:49:15.872Z,99124.25
2023-03-06T03:51:46.045Z,99116.78
2023-03-06T03:54:14.714Z,99110.56
2023-03-06T03:56:46.600Z,99107.28
2023-03-06T03:59:23.357Z,99104.59
2023-03-06T04:02:05.418Z,99099.31
2023-03-06T04:04:40.674Z,99091.38
2023-03-06T04:07:09.626Z,99097.16
2023-03-06T04:09:38.648Z,99092.44
2023-03-06T04:12:08.188Z,99091.53
2023-03-06T04:14:38.037Z,99081.53
2023-03-06T04:17:07.160Z,99089.47
2023-03-06T04:19:35.424Z,99079.78
2023-03-06T04:22:05.116Z,99081.66
2023-03-06T04:24:36.269Z,99074.50
2023-03-06T04:27:04.812Z,99076.00
2023-03-06T04:29:35.456Z,99071.53
2023-03-06T04:32:03.905Z,99067.50
2023-03-06T04:34:32.260Z,99065.25
2023-03-06T04:37:00.560Z,99066.06
2023-03-06T04:39:30.122Z,99057.53
2023-03-06T04:41:58.555Z,99058.44
2023-03-06T04:44:26.644Z,99057.97
2023-03-06T04:46:54.782Z,99058.81
2023-03-06T04:49:22.968Z,99056.59
2023-03-06T04:51:51.133Z,99051.66
2023-03-06T04:54:19.350Z,99055.16
2023-03-06T04:56:48.826Z,99050.84
2023-03-06T04:59:17.016Z,99045.69
2023-03-06T05:01:45.316Z,99042.53
2023-03-06T05:04:13.670Z,99045.16
2023-03-06T05:06:41.860Z,99041.03
2023-03-06T05:09:10.059Z,99037.66
2023-03-06T05:11:38.240Z,99036.00
2023-03-06T05:14:07.735Z,99031.09
2023-03-06T05:16:35.960Z,99031.22
2023-03-06T05:19:04.341Z,99031.22
2023-03-06T05:21:32.475Z,99037.41
2023-03-06T05:24:00.928Z,99035.41
2023-03-06T05:26:29.088Z,99039.03
2023-03-06T05:28:57.345Z,99040.91
2023-03-06T05:31:26.990Z,99043.72
2023-03-06T05:33:55.239Z,99043.25
2023-03-06T05:36:23.367Z,99050.28
2023-03-06T05:38:52.161Z,99047.47
2023-03-06T05:41:20.318Z,99045.16
2023-03-06T05:43:48.665Z,99042.34
2023-03-06T05:46:17.007Z,99048.06
2023-03-06T05:48:47.104Z,99041.59
2023-03-06T05:51:15.639Z,99039.97
2023-03-06T05:53:43.933Z,99039.41
2023-03-06T05:56:12.038Z,99039.53
2023-03-06T05:58:40.479Z,99033.28
2023-03-06T06:01:15.026Z,99039.41
2023-03-06T06:03:43.939Z,99031.22
2023-03-06T06:06:16.129Z,99038.34
2023-03-06T06:08:44.697Z,99038.81
2023-03-06T06:11:14.467Z,99033.19
2023-03-06T06:13:43.535Z,99039.88
2023-03-06T06:16:15.624Z,99040.22
2023-03-06T06:18:44.549Z,99031.53
2023-03-06T06:21:15.649Z,99037.28
2023-03-06T06:23:44.162Z,99038.13
2023-03-06T06:26:12.847Z,99034.47
2023-03-06T06:28:41.092Z,99029.09
2023-03-06T06:31:10.575Z,99022.88
2023-03-06T06:33:38.995Z,99027.56
2023-03-06T06:36:15.843Z,99020.81
2023-03-06T06:38:44.060Z,99031.81
2023-03-06T06:44:01.936Z,99036.72
2023-03-06T06:47:18.198Z,99046.56
2023-03-06T06:49:18.753Z,99048.06
2023-03-06T06:51:48.248Z,99045.84
2023-03-06T06:54:16.395Z,99045.03
2023-03-06T06:56:44.623Z,99039.28
2023-03-06T06:59:17.501Z,99042.44
2023-03-06T07:01:46.371Z,99044.22
2023-03-06T07:04:15.154Z,99037.53
2023-03-06T07:06:43.751Z,99048.06
2023-03-06T07:09:14.594Z,99041.38
2023-03-06T07:11:43.249Z,99039.41
2023-03-06T07:14:11.472Z,99047.97
2023-03-06T07:16:39.989Z,99052.03
2023-03-06T07:19:09.098Z,99049.69
2023-03-06T07:21:37.245Z,99046.78
2023-03-06T07:24:06.057Z,99054.16
2023-03-06T07:26:35.772Z,99042.09
2023-03-06T07:29:05.152Z,99045.03
2023-03-06T07:31:33.446Z,99049.81
2023-03-06T07:34:04.717Z,99050.28
2023-03-06T07:36:34.536Z,99045.63
2023-03-06T07:39:02.791Z,99047.03
2023-03-06T07:41:30.928Z,99051.91
2023-03-06T07:44:00.616Z,99038.59
2023-03-06T07:46:29.294Z,99045.13
2023-03-06T07:48:58.158Z,99041.25
2023-03-06T07:51:26.415Z,99045.13
2023-03-06T07:53:54.671Z,99043.50
2023-03-06T07:56:22.924Z,99043.09
2023-03-06T07:58:51.259Z,99042.44
2023-03-06T08:01:24.532Z,99044.31
2023-03-06T08:03:53.527Z,99033.22
2023-03-06T08:06:30.009Z,99037.84
2023-03-06T08:09:02.011Z,99034.56
2023-03-06T08:11:33.150Z,99030.75
2023-03-06T08:14:01.896Z,99032.13
2023-03-06T08:16:32.213Z,99028.03
2023-03-06T08:19:00.496Z,99030.13
2023-03-06T08:21:29.986Z,99028.72
2023-03-06T08:23:58.348Z,99034.81
2023-03-06T08:26:28.406Z,99032.41
2023-03-06T08:28:59.294Z,99038.81
2023-03-06T08:31:33.658Z,99037.31
2023-03-06T08:34:06.199Z,99036.81
2023-03-06T08:36:34.809Z,99032.00
2023-03-06T08:39:03.263Z,99027.72
2023-03-06T08:41:32.230Z,99041.81
2023-03-06T08:44:00.622Z,99029.81
2023-03-06T08:46:31.773Z,99032.97
2023-03-06T08:49:00.253Z,99026.03
2023-03-06T08:51:29.510Z,99030.44
2023-03-06T08:53:59.017Z,99033.28
2023-03-06T08:56:29.454Z,99030.50
2023-03-06T08:59:00.109Z,99030.41
2023-03-06T09:01:32.865Z,99024.94
2023-03-06T09:04:03.029Z,99026.44
2023-03-06T09:06:33.867Z,99029.69
2023-03-06T09:09:02.196Z,99025.03
2023-03-06T09:11:30.460Z,99030.88
2023-03-06T09:13:59.133Z,99034.59
2023-03-06T09:16:28.328Z,99031.75
2023-03-06T09:18:58.729Z,99025.78
2023-03-06T09:21:28.569Z,99031.75
2023-03-06T09:23:57.071Z,99034.84
2023-03-06T09:26:39.737Z,99028.72
2023-03-06T09:29:12.502Z,99037.53
2023-03-06T09:31:40.826Z,99032.44
2023-03-06T09:34:10.374Z,99029.56
2023-03-06T09:36:54.925Z,99043.66
2023-03-06T09:39:24.995Z,99033.09
2023-03-06T09:41:54.186Z,99029.50
2023-03-06T09:44:27.521Z,99035.84
2023-03-06T09:47:23.955Z,99031.91
2023-03-06T09:50:11.179Z,99030.75
2023-03-06T09:52:52.238Z,99034.78
2023-03-06T09:55:23.274Z,99028.00
2023-03-06T09:57:58.946Z,99020.97
2023-03-06T10:00:35.061Z,99019.19
2023-03-06T10:03:21.235Z,99026.16
2023-03-06T10:05:58.215Z,99028.00
2023-03-06T10:08:31.280Z,99032.25
2023-03-06T10:11:03.679Z,99032.56
2023-03-06T10:13:40.250Z,99032.69
2023-03-06T10:16:27.606Z,99039.13
2023-03-06T10:18:57.956Z,99033.84
2023-03-06T10:21:45.581Z,99031.25
2023-03-06T10:24:43.471Z,99027.41
2023-03-06T10:27:23.539Z,99026.72
2023-03-06T10:30:04.296Z,99028.84
2023-03-06T10:32:48.718Z,99035.34
2023-03-06T10:35:23.305Z,99031.78
2023-03-06T10:37:59.083Z,99030.59
2023-03-06T10:40:39.363Z,99038.41
2023-03-06T10:43:12.462Z,99037.94
2023-03-06T10:45:52.366Z,99036.63
2023-03-06T10:48:24.300Z,99025.31
2023-03-06T10:50:54.852Z,99034.94
2023-03-06T10:53:29.008Z,99026.88
2023-03-06T10:56:00.144Z,99027.50
2023-03-06T10:58:31.429Z,99023.69
2023-03-06T11:01:07.923Z,99027.44
2023-03-06T11:03:37.340Z,99034.47
2023-03-06T11:06:13.661Z,99033.53
2023-03-06T11:08:45.414Z,99035.25
2023-03-06T11:11:22.443Z,99023.47
2023-03-06T11:13:58.997Z,99030.91
2023-03-06T11:16:31.340Z,99032.75
2023-03-06T11:19:03.868Z,99028.09
2023-03-06T11:21:35.170Z,99032.88
2023-03-06T11:24:09.646Z,99029.28
2023-03-06T11:26:45.834Z,99033.53
2023-03-06T11:29:29.589Z,99025.16
2023-03-06T11:32:05.098Z,99013.91
2023-03-06T11:34:42.582Z,99013.91
2023-03-06T11:37:21.891Z,99012.81
2023-03-06T11:40:01.430Z,99009.50
2023-03-06T11:42:33.534Z,99012.88
2023-03-06T11:45:23.108Z,99010.69
2023-03-06T11:48:01.640Z,99002.03
2023-03-06T11:50:35.823Z,99003.31
2023-03-06T11:53:07.660Z,98998.28
2023-03-06T11:55:50.462Z,99001.50
2023-03-06T11:58:57.287Z,98995.88
2023-03-06T12:01:33.719Z,98999.81
2023-03-06T12:04:49.604Z,98993.47
2023-03-06T12:07:26.538Z,98994.69
2023-03-06T12:13:10.334Z,98981.53
2023-03-06T12:16:02.776Z,98983.94
2023-03-06T12:18:43.950Z,98978.66
2023-03-06T12:21:23.941Z,98984.44
2023-03-06T12:24:23.888Z,98980.09
2023-03-06T12:27:10.019Z,98978.47
2023-03-06T12:30:06.348Z,98971.44
2023-03-06T12:32:48.679Z,98973.09
2023-03-06T12:35:36.609Z,98961.34
2023-03-06T12:38:26.721Z,98954.66
2023-03-06T12:41:16.673Z,98961.22
2023-03-06T12:44:29.254Z,98960.28
2023-03-06T12:47:03.742Z,98959.34
2023-03-06T12:49:38.658Z,98957.16
2023-03-06T12:52:09.883Z,98951.84
2023-03-06T12:54:41.683Z,98947.47
2023-03-06T12:57:12.439Z,98945.72
2023-03-06T12:59:47.144Z,98936.06
2023-03-06T13:02:54.147Z,98940.16
2023-03-06T13:06:14.712Z,98936.84
2023-03-06T13:09:15.835Z,98938.91
2023-03-06T13:12:26.165Z,98942.97
2023-03-06T13:15:02.019Z,98937.00
2023-03-06T13:17:37.821Z,98932.81
2023-03-06T13:20:43.976Z,98924.50
2023-03-06T13:23:52.421Z,98926.09
2023-03-06T13:27:06.905Z,98928.03
2023-03-06T13:30:47.064Z,98921.88
2023-03-06T13:33:53.525Z,98921.06
2023-03-06T13:36:31.101Z,98919.44
2023-03-06T13:39:09.763Z,98923.53
2023-03-06T13:41:56.403Z,98923.53
2023-03-06T13:44:52.310Z,98911.97
2023-03-06T13:48:21.110Z,98925.00
2023-03-06T13:50:47.319Z,98918.50
2023-03-06T13:54:16.436Z,98920.94
2023-03-06T13:57:18.601Z,98917.78
2023-03-06T14:00:32.986Z,98924.63
2023-03-06T14:03:47.613Z,98915.38
2023-03-06T14:06:54.497Z,98914.28
2023-03-06T14:09:30.855Z,98910.19
2023-03-06T14:12:06.927Z,98906.78
2023-03-06T14:14:44.381Z,98907.34
2023-03-06T14:17:26.426Z,98907.72
2023-03-06T14:19:55.207Z,98905.56
2023-03-06T14:22:25.899Z,98907.03
2023-03-06T14:25:00.689Z,98903.75
2023-03-06T14:27:45.690Z,98898.47
2023-03-06T14:30:17.388Z,98899.19
2023-03-06T14:32:46.625Z,98899.03
2023-03-06T14:35:26.341Z,98896.03
2023-03-06T14:38:01.551Z,98896.59
2023-03-06T14:40:34.404Z,98892.34
2023-03-06T14:43:21.952Z,98888.94
2023-03-06T14:45:57.222Z,98889.50
2023-03-06T14:48:27.934Z,98896.56
2023-03-06T14:50:57.690Z,98893.72
2023-03-06T14:53:31.402Z,98888.28
2023-03-06T14:56:04.934Z,98882.97
2023-03-06T14:58:38.718Z,98882.13
2023-03-06T15:01:10.757Z,98887.59
2023-03-06T15:03:46.505Z,98886.63
2023-03-06T15:06:21.558Z,98880.72
2023-03-06T15:08:59.732Z,98878.22
2023-03-06T15:11:28.031Z,98876.97
2023-03-06T15:14:04.403Z,98876.56
2023-03-06T15:16:32.904Z,98871.94
2023-03-06T15:19:02.610Z,98871.28
2023-03-06T15:21:35.857Z,98874.53
2023-03-06T15:24:36.073Z,98866.97
2023-03-06T15:27:07.233Z,98865.78
2023-03-06T15:29:38.887Z,98870.19
2023-03-06T15:32:42.348Z,98862.25
2023-03-06T15:35:32.684Z,98857.09
2023-03-06T15:38:01.408Z,98864.28
2023-03-06T15:40:32.983Z,98852.19
2023-03-06T15:43:02.035Z,98857.91
2023-03-06T15:45:31.875Z,98855.88
2023-03-06T15:48:00.090Z,98845.53
2023-03-06T15:50:30.397Z,98850.16
2023-03-06T15:52:58.638Z,98849.97
2023-03-06T15:55:27.443Z,98833.25
2023-03-06T15:58:00.107Z,98835.72
2023-03-06T16:00:29.861Z,98838.03
2023-03-06T16:02:59.804Z,98831.00
2023-03-06T16:05:28.989Z,98833.03
2023-03-06T16:07:57.676Z,98825.22
2023-03-06T16:10:28.621Z,98819.81
2023-03-06T16:13:03.472Z,98815.38
2023-03-06T16:15:39.104Z,98808.22
2023-03-06T16:18:07.457Z,98809.28
2023-03-06T16:20:35.783Z,98810.25
2023-03-06T16:23:07.827Z,98814.66
2023-03-06T16:25:36.121Z,98804.31
2023-03-06T16:28:08.587Z,98815.03
2023-03-06T16:30:38.280Z,98822.25
2023-03-06T16:33:07.395Z,98819.13
2023-03-06T16:35:35.587Z,98820.22
2023-03-06T16:38:03.792Z,98818.88
2023-03-06T16:40:37.603Z,98809.34
2023-03-06T16:43:08.410Z,98811.38
2023-03-06T16:45:40.047Z,98807.06
2023-03-06T16:48:12.136Z,98802.94
2023-03-06T16:50:42.105Z,98804.75
2023-03-06T16:53:10.591Z,98802.28
2023-03-06T16:55:38.805Z,98796.44
2023-03-06T16:58:09.416Z,98800.63
2023-03-06T17:00:37.670Z,98797.66
2023-03-06T17:03:05.985Z,98788.41
2023-03-06T17:05:35.168Z,98799.69
2023-03-06T17:08:04.016Z,98793.16
2023-03-06T17:10:32.531Z,98791.25
2023-03-06T17:13:00.661Z,98789.34
2023-03-06T17:15:30.483Z,98791.28
2023-03-06T17:17:59.485Z,98779.00
2023-03-06T17:20:27.689Z,98781.88
2023-03-06T17:22:55.879Z,98776.44
2023-03-06T17:25:24.297Z,98775.91
2023-03-06T17:27:52.480Z,98778.50
2023-03-06T17:30:23.311Z,98783.66
2023-03-06T17:32:53.687Z,98782.13
2023-03-06T17:35:21.966Z,98777.94
2023-03-06T17:37:50.292Z,98787.56
2023-03-06T17:40:18.682Z,98791.94
2023-03-06T17:42:46.826Z,98783.63
2023-03-06T17:45:15.046Z,98781.34
2023-03-06T17:47:43.210Z,98780.09
2023-03-06T17:50:13.368Z,98776.84
2023-03-06T17:52:41.502Z,98768.94
2023-03-06T17:55:10.803Z,98774.53
2023-03-06T17:57:38.933Z,98765.97
2023-03-06T18:00:09.409Z,98777.38
2023-03-06T18:02:45.294Z,98773.69
2023-03-06T18:05:15.038Z,98772.22
2023-03-06T18:07:43.314Z,98773.31
2023-03-06T18:10:12.266Z,98770.84
2023-03-06T18:12:40.402Z,98774.91
2023-03-06T18:15:12.411Z,98782.41
2023-03-06T18:17:40.552Z,98771.13
2023-03-06T18:20:10.668Z,98769.75
2023-03-06T18:22:40.169Z,98768.97
2023-03-06T18:25:09.464Z,98761.28
2023-03-06T18:27:37.884Z,98751.13
2023-03-06T18:30:07.658Z,98753.69
2023-03-06T18:32:39.262Z,98746.06
2023-03-06T18:35:15.085Z,98749.34
2023-03-06T18:37:48.573Z,98743.66
2023-03-06T18:40:24.873Z,98739.31
2023-03-06T18:42:54.310Z,98735.91
2023-03-06T18:45:23.144Z,98726.25
2023-03-06T18:47:51.965Z,98723.66
2023-03-06T18:50:21.057Z,98714.56
2023-03-06T18:52:51.375Z,98705.59
2023-03-06T18:55:20.157Z,98713.47
2023-03-06T18:57:48.836Z,98709.41
2023-03-06T19:00:19.215Z,98712.13
2023-03-06T19:02:47.844Z,98708.84
2023-03-06T19:05:18.929Z,98707.34
2023-03-06T19:07:53.076Z,98700.00
2023-03-06T19:10:25.392Z,98694.97
2023-03-06T19:12:56.551Z,98697.28
2023-03-06T19:15:27.649Z,98694.69
2023-03-06T19:18:00.200Z,98692.13
2023-03-06T19:20:33.283Z,98686.16
2023-03-06T19:23:06.576Z,98675.56
2023-03-06T19:25:38.406Z,98673.78
2023-03-06T19:28:13.743Z,98679.34
2023-03-06T19:30:49.808Z,98671.47
2023-03-06T19:33:23.664Z,98670.25
2023-03-06T19:36:04.263Z,98672.81
2023-03-06T19:38:38.920Z,98667.28
2023-03-06T19:41:15.472Z,98671.63
2023-03-06T19:43:44.718Z,98665.47
2023-03-06T19:46:15.888Z,98661.28
2023-03-06T19:48:53.406Z,98659.66
2023-03-06T19:51:21.921Z,98653.94
2023-03-06T19:53:51.675Z,98638.72
2023-03-06T19:56:23.692Z,98639.00
2023-03-06T19:58:53.123Z,98647.94
2023-03-06T20:01:23.604Z,98646.84
2023-03-06T20:03:58.713Z,98637.78
2023-03-06T20:06:29.620Z,98638.16
2023-03-06T20:08:59.647Z,98627.56
2023-03-06T20:11:30.946Z,98625.25
2023-03-06T20:14:01.381Z,98621.88
2023-03-06T20:16:39.690Z,98630.41
2023-03-06T20:19:12.945Z,98635.19
2023-03-06T20:21:46.686Z,98622.94
2023-03-06T20:24:18.809Z,98624.03
2023-03-06T20:26:51.855Z,98636.81
2023-03-06T20:29:20.523Z,98625.00
2023-03-06T20:31:49.203Z,98614.81
2023-03-06T20:34:17.721Z,98617.38
2023-03-06T20:36:46.202Z,98613.19
2023-03-06T20:39:19.214Z,98606.53
2023-03-06T20:41:48.771Z,98609.91
2023-03-06T20:44:20.290Z,98605.16
2023-03-06T20:46:55.344Z,98613.44
2023-03-06T20:49:27.429Z,98601.63
2023-03-06T20:52:02.181Z,98597.03
2023-03-06T20:54:32.165Z,98600.66
2023-03-06T20:57:02.504Z,98602.56
2023-03-06T20:59:31.048Z,98592.91
2023-03-06T21:01:59.576Z,98586.00
2023-03-06T21:04:27.819Z,98591.44
2023-03-06T21:06:56.881Z,98582.88
2023-03-06T21:09:25.299Z,98583.72
2023-03-06T21:11:55.132Z,98587.38
2023-03-06T21:14:25.576Z,98583.56
2023-03-06T21:16:54.015Z,98575.16
2023-03-06T21:19:25.123Z,98574.59
2023-03-06T21:21:56.741Z,98574.47
2023-03-06T21:24:26.840Z,98563.72
2023-03-06T21:26:57.080Z,98551.25
2023-03-06T21:29:25.814Z,98559.50
2023-03-06T21:31:54.338Z,98560.06
2023-03-06T21:34:22.683Z,98564.66
2023-03-06T21:36:51.063Z,98551.38
2023-03-06T21:39:19.475Z,98548.50
2023-03-06T21:41:47.913Z,98551.50
2023-03-06T21:44:17.708Z,98547.16
2023-03-06T21:46:45.890Z,98533.03
2023-03-06T21:49:14.040Z,98541.72
2023-03-06T21:51:42.423Z,98545.94
2023-03-06T21:54:13.011Z,98541.19
2023-03-06T21:56:41.405Z,98538.34
2023-03-06T21:59:09.582Z,98539.69
2023-03-06T22:01:39.414Z,98538.06
2023-03-06T22:04:07.811Z,98534.66
2023-03-06T22:06:36.662Z,98527.88
2023-03-06T22:09:05.285Z,98533.59
2023-03-06T22:11:37.006Z,98530.31
2023-03-06T22:14:05.811Z,98530.59
2023-03-06T22:16:34.444Z,98523.41
2023-03-06T22:19:04.257Z,98527.47
2023-03-06T22:21:32.536Z,98532.50
2023-03-06T22:24:01.078Z,98534.00
2023-03-06T22:26:31.257Z,98526.53
2023-03-06T22:28:59.496Z,98532.22
2023-03-06T22:31:29.524Z,98522.47
2023-03-06T22:34:00.371Z,98521.78
2023-03-06T22:36:31.729Z,98520.41
2023-03-06T22:39:05.269Z,98519.84
2023-03-06T22:41:33.738Z,98521.09
2023-03-06T22:44:03.307Z,98511.19
2023-03-06T22:46:32.563Z,98504.94
2023-03-06T22:49:02.230Z,98510.25
2023-03-06T22:51:31.957Z,98502.06
2023-03-06T22:54:00.237Z,98515.53
2023-03-06T22:56:28.617Z,98497.06
2023-03-06T22:58:57.584Z,98498.53
2023-03-06T23:01:28.096Z,98492.72
2023-03-06T23:03:59.223Z,98499.06
2023-03-06T23:06:31.852Z,98494.75
2023-03-06T23:09:03.477Z,98486.22
2023-03-06T23:11:31.979Z,98486.31
2023-03-06T23:14:20.401Z,98484.84
2023-03-06T23:17:07.776Z,98496.34
2023-03-06T23:19:54.716Z,98492.03
2023-03-06T23:22:43.128Z,98476.28
2023-03-06T23:25:30.407Z,98494.88
2023-03-06T23:27:58.811Z,98489.19
2023-03-06T23:30:27.023Z,98484.44
2023-03-06T23:32:55.620Z,98482.97
2023-03-06T23:35:24.036Z,98489.44
2023-03-06T23:37:53.620Z,98473.59
2023-03-06T23:40:22.301Z,98482.25
2023-03-06T23:42:50.519Z,98473.69
2023-03-06T23:45:18.955Z,98470.06
2023-03-06T23:47:47.224Z,98467.06
2023-03-06T23:50:15.976Z,98472.09
2023-03-06T23:52:44.205Z,98470.84
2023-03-06T23:55:14.120Z,98472.47
2023-03-06T23:57:42.523Z,98450.94
